Prospect, NY (13435)

7:22 AM EST on November 28, 2014 (GMT -0500)
This'll Do Farm | Change Station
CLOSE
Current Station
Personal Weather Station
Location: Holland Patent, NY
Elevation: 830 ft
Nearby Weather Stations
Active Advisory: Lake Effect Snow Advisory

Elev 830 ft 43.21 °N, 75.22 °W | Updated 10 minutes ago

Overcast
Overcast
21.7 °F
Feels Like 22 °F
N
0.0
Wind Variable Wind from North
Gusts 0.0 mph

Today
High -- | Low -- °F
--% Chance of Precip.
Yesterday
High -- | Low -- °F
Precip. -- in
7:09 AM 4:27 PM
Waxing Crescent, 40% visible
Pressure 30.16 in
Visibility 10.0 miles
Clouds Scattered Clouds 2700 ft
Overcast 3200 ft
Windchill 22 °F
Dew Point 19 °F
Humidity 89%
Rainfall 0.00 in
Snow Depth Not available.
UV 0 out of 12
Pollen .10 out of 12
Air Quality Not available.
Flu Activity Not available.
SPECI KRME 281203Z AUTO 34004KT 10SM SCT027 OVC032 M04/M07 A3016 RMK AO2 T10441067

More Conditions Fewer Conditions

Pressure 30.16 in
Visibility 10.0 miles
Clouds Scattered Clouds 2700 ft
Overcast 3200 ft
Windchill 22 °F
Dew Point 19 °F
Humidity 89%
Rainfall 0.00 in
Snow Depth Not available.
UV 0 out of 12
Pollen .10 out of 12
Air Quality Not available.
Flu Activity Not available.
SPECI KRME 281203Z AUTO 34004KT 10SM SCT027 OVC032 M04/M07 A3016 RMK AO2 T10441067

More Conditions Fewer Conditions

Nowcast | as of 6:33 am EST on November 28, 2014

Light snow is moving through central New York and northeast Pennsylvania. Locations across the Susquehanna region may pick up a quick inch through 8 am but most locations will only see a dusting through this time.

×

10-Day Weather Forecast

Almanac

Astronomy

Nov. 28, 2014 Rise Set
Actual Time
Civil Twilight
Nautical Twilight
Astronomical Twilight
Moon
Length of Visible Light
Length of Day
Tomorrow will be .
, % of the Moon is Illuminated

Today's Extremes

State Highs State Lows

Community

WunderPhotos

Upload Photos

1,774,199 photos uploaded!

WunderBlogs® & News

Nearby

Air Quality

  Air Quality AQ Index Pollutant
Not available.

Snow Depth

Station Depth Elevation

Earthquake Activity

City Distance Mag. Time & Date
Minimum magnitude displayed is 2.5.

Coastal Water Temperatures

Place Temperature

Nearby Weather Stations